Enchantment of the Seas — C6FZ7 — position and weather

sailwx.info

Track history (hours):
 
Tides and Currents Weather Stations Pressure Air Temp Water Temp Dewpoint Dewpoint Depression Visibility Wind Speed Wind Dir Waves Ship Positions

Enchantment of the Seas (Bahamas)

Last reported at 2016-May-24 02:28 UTC. Time now 2016-May-25 09:02 UTC.
Position N 26°12' W 079°18'.

Type: Passenger vessel. MMSI: 311733000.

Date/timePositionNaut miles runAvg speedWind from/ knotsBaromVisibWave heightAir tempDewpointWater temp
2016-May-24 02:28N 26°12' W 079°18'8 8.8
2016-May-24 01:33N 26°08' W 079°26'9 8.7
2016-May-24 00:33N 26°03' W 079°34'9 8.9
2016-May-23 23:33N 25°59' W 079°43'9 9.4
2016-May-23 22:33N 25°54' W 079°51'1010.2
2016-May-23 21:33N 25°48' W 080°01'9 8.8
2016-May-23 20:33N 25°47' W 080°10'0 0.4
2016-May-23 19:24N 25°47' W 080°11'0 0.0
2016-May-23 18:24N 25°47' W 080°11'0 0.0
2016-May-23 17:12N 25°47' W 080°11'0 0.0
2016-May-23 16:27N 25°47' W 080°11'0 0.0
2016-May-23 15:30N 25°47' W 080°11'0 0.0
2016-May-23 14:30N 25°47' W 080°11'0 0.0
2016-May-23 12:30N 25°47' W 080°11'0 0.0
2016-May-23 11:30N 25°47' W 080°11'0 0.0
2016-May-23 10:33N 25°47' W 080°11'7 7.1
2016-May-23 09:33N 25°47' W 080°03'1414.3
2016-May-23 08:33N 25°54' W 079°50'1414.4
2016-May-23 07:33N 26°02' W 079°36'  
2016-May-21 02:33N 26°11' W 079°21'9 8.9
2016-May-21 01:33N 26°06' W 079°29'9 9.3
2016-May-21 00:33N 26°01' W 079°38'9 9.2
2016-May-20 23:33N 25°56' W 079°46'9 9.3
2016-May-20 22:33N 25°52' W 079°55'9 9.4
2016-May-20 21:33N 25°47' W 080°04'6 0.8
2016-May-20 14:32N 25°47' W 080°11'0 0.0
2016-May-20 10:33N 25°47' W 080°11'7 6.5
2016-May-20 09:33N 25°47' W 080°03'9412.6
2016-May-20 02:05N 24°26' W 080°57'814.7
2016-May-20 01:31N 24°25' W 081°07'112 5.3
2016-May-19 04:26N 25°42' W 079°37'1819.4
2016-May-19 03:28N 25°57' W 079°25'2119.9
2016-May-19 02:26N 26°11' W 079°08'1820.5
2016-May-19 01:33N 26°10' W 078°48'26 0.6
2016-May-17 02:30N 26°12' W 079°17'8 9.0
2016-May-17 01:33N 26°08' W 079°25'9 9.0
2016-May-17 00:33N 26°03' W 079°34'9 9.2
2016-May-16 23:33N 25°58' W 079°42'9 9.0
2016-May-16 22:33N 25°54' W 079°51'9 9.5
2016-May-16 21:34N 25°49' W 079°60'9 8.6
2016-May-16 20:30N 25°47' W 080°10'1 0.8
2016-May-16 19:18N 25°47' W 080°11'0 0.0
2016-May-16 18:18N 25°47' W 080°11'0 0.0
2016-May-16 17:24N 25°47' W 080°11'0 0.0
2016-May-16 16:24N 25°47' W 080°11'0 0.0
2016-May-16 15:27N 25°47' W 080°11'0 0.0
2016-May-16 14:24N 25°47' W 080°11'0 0.0
2016-May-16 12:12N 25°47' W 080°11'0 0.0
2016-May-16 11:30N 25°47' W 080°11'0 0.2
2016-May-16 10:31N 25°47' W 080°11'8 8.8
2016-May-16 09:33N 25°48' W 080°01'1313.5
2016-May-16 08:33N 25°55' W 079°49'1514.7
2016-May-16 07:33N 26°03' W 079°35'92 2.7
2016-May-14 21:34N 25°52' W 077°54'76 4.1
2016-May-14 03:09N 26°14' W 079°15'5 9.1
2016-May-14 02:33N 26°11' W 079°20'  
Track history (hours):
 
Tides and Currents Weather Stations Pressure Air Temp Water Temp Dewpoint Dewpoint Depression Visibility Wind Speed Wind Dir Waves Ship Positions

Enchantment of the Seas (Bahamas)

Last reported at 2016-May-24 02:28 UTC. Time now 2016-May-25 09:02 UTC.
Position N 26°12' W 079°18'.

Type: Passenger vessel. MMSI: 311733000.

Date/timePositionNaut miles runAvg speedWind from/ knotsBaromVisibWave heightAir tempDewpointWater temp
2016-May-24 02:28N 26°12' W 079°18'8 8.8
2016-May-24 01:33N 26°08' W 079°26'9 8.7
2016-May-24 00:33N 26°03' W 079°34'9 8.9
2016-May-23 23:33N 25°59' W 079°43'9 9.4
2016-May-23 22:33N 25°54' W 079°51'1010.2
2016-May-23 21:33N 25°48' W 080°01'9 8.8
2016-May-23 20:33N 25°47' W 080°10'0 0.4
2016-May-23 19:24N 25°47' W 080°11'0 0.0
2016-May-23 18:24N 25°47' W 080°11'0 0.0
2016-May-23 17:12N 25°47' W 080°11'0 0.0
2016-May-23 16:27N 25°47' W 080°11'0 0.0
2016-May-23 15:30N 25°47' W 080°11'0 0.0
2016-May-23 14:30N 25°47' W 080°11'0 0.0
2016-May-23 12:30N 25°47' W 080°11'0 0.0
2016-May-23 11:30N 25°47' W 080°11'0 0.0
2016-May-23 10:33N 25°47' W 080°11'7 7.1
2016-May-23 09:33N 25°47' W 080°03'1414.3
2016-May-23 08:33N 25°54' W 079°50'1414.4
2016-May-23 07:33N 26°02' W 079°36'  
2016-May-21 02:33N 26°11' W 079°21'9 8.9
2016-May-21 01:33N 26°06' W 079°29'9 9.3
2016-May-21 00:33N 26°01' W 079°38'9 9.2
2016-May-20 23:33N 25°56' W 079°46'9 9.3
2016-May-20 22:33N 25°52' W 079°55'9 9.4
2016-May-20 21:33N 25°47' W 080°04'6 0.8
2016-May-20 14:32N 25°47' W 080°11'0 0.0
2016-May-20 10:33N 25°47' W 080°11'7 6.5
2016-May-20 09:33N 25°47' W 080°03'9412.6
2016-May-20 02:05N 24°26' W 080°57'814.7
2016-May-20 01:31N 24°25' W 081°07'112 5.3
2016-May-19 04:26N 25°42' W 079°37'1819.4
2016-May-19 03:28N 25°57' W 079°25'2119.9
2016-May-19 02:26N 26°11' W 079°08'1820.5
2016-May-19 01:33N 26°10' W 078°48'26 0.6
2016-May-17 02:30N 26°12' W 079°17'8 9.0
2016-May-17 01:33N 26°08' W 079°25'9 9.0
2016-May-17 00:33N 26°03' W 079°34'9 9.2
2016-May-16 23:33N 25°58' W 079°42'9 9.0
2016-May-16 22:33N 25°54' W 079°51'9 9.5
2016-May-16 21:34N 25°49' W 079°60'9 8.6
2016-May-16 20:30N 25°47' W 080°10'1 0.8
2016-May-16 19:18N 25°47' W 080°11'0 0.0
2016-May-16 18:18N 25°47' W 080°11'0 0.0
2016-May-16 17:24N 25°47' W 080°11'0 0.0
2016-May-16 16:24N 25°47' W 080°11'0 0.0
2016-May-16 15:27N 25°47' W 080°11'0 0.0
2016-May-16 14:24N 25°47' W 080°11'0 0.0
2016-May-16 12:12N 25°47' W 080°11'0 0.0
2016-May-16 11:30N 25°47' W 080°11'0 0.2
2016-May-16 10:31N 25°47' W 080°11'8 8.8
2016-May-16 09:33N 25°48' W 080°01'1313.5
2016-May-16 08:33N 25°55' W 079°49'1514.7
2016-May-16 07:33N 26°03' W 079°35'92 2.7
2016-May-14 21:34N 25°52' W 077°54'76 4.1
2016-May-14 03:09N 26°14' W 079°15'5 9.1
2016-May-14 02:33N 26°11' W 079°20'  

Dump ship's entire track history